createdAt,value
2022-10-03T00:00:03.175Z,11.10
2022-10-03T00:05:46.377Z,11.00
2022-10-03T00:11:31.640Z,11.10
2022-10-03T00:16:55.837Z,11.20
2022-10-03T00:22:06.156Z,11.20
2022-10-03T00:27:37.279Z,11.30
2022-10-03T00:33:06.403Z,11.30
2022-10-03T00:38:27.574Z,11.40
2022-10-03T00:44:07.713Z,11.30
2022-10-03T00:49:52.924Z,11.40
2022-10-03T00:55:17.974Z,11.30
2022-10-03T01:00:26.769Z,11.20
2022-10-03T01:05:49.627Z,11.20
2022-10-03T01:11:07.139Z,11.20
2022-10-03T01:16:17.488Z,11.10
2022-10-03T01:21:58.854Z,11.10
2022-10-03T01:27:05.399Z,11.10
2022-10-03T01:32:17.485Z,11.30
2022-10-03T01:37:57.480Z,11.30
2022-10-03T01:43:22.044Z,11.30
2022-10-03T01:48:49.826Z,11.40
2022-10-03T01:54:04.873Z,11.30
2022-10-03T01:59:20.239Z,11.50
2022-10-03T02:04:34.344Z,11.30
2022-10-03T02:10:03.701Z,11.30
2022-10-03T02:15:05.832Z,11.40
2022-10-03T02:20:38.801Z,11.50
2022-10-03T02:25:53.635Z,11.50
2022-10-03T02:31:23.042Z,11.50
2022-10-03T02:37:04.265Z,11.50
2022-10-03T02:42:40.055Z,11.60
2022-10-03T02:48:32.357Z,11.70
2022-10-03T02:54:11.717Z,11.60
2022-10-03T02:59:36.924Z,11.70
2022-10-03T03:04:57.395Z,11.60
2022-10-03T03:10:19.822Z,11.70
2022-10-03T03:15:43.504Z,11.70
2022-10-03T03:21:20.613Z,11.80
2022-10-03T03:26:45.334Z,11.80
2022-10-03T03:32:07.919Z,11.70
2022-10-03T03:37:39.647Z,11.70
2022-10-03T03:42:53.786Z,11.60
2022-10-03T03:48:22.588Z,11.60
2022-10-03T03:54:00.994Z,11.60
2022-10-03T03:59:40.900Z,11.60
2022-10-03T04:05:08.355Z,11.60
2022-10-03T04:10:24.356Z,11.70
2022-10-03T04:15:54.290Z,11.60
2022-10-03T04:21:09.615Z,11.60
2022-10-03T04:26:15.816Z,11.60
2022-10-03T04:31:35.202Z,11.70
2022-10-03T04:36:52.571Z,11.70
2022-10-03T04:41:57.540Z,11.70
2022-10-03T04:47:06.926Z,11.60
2022-10-03T04:52:17.431Z,11.60
2022-10-03T04:57:35.473Z,11.60
2022-10-03T05:02:52.091Z,11.60
2022-10-03T05:08:01.656Z,11.60
2022-10-03T05:13:22.697Z,11.60
2022-10-03T05:18:42.897Z,11.60
2022-10-03T05:24:03.326Z,11.60
2022-10-03T05:29:17.829Z,11.50
2022-10-03T05:34:46.897Z,11.50
2022-10-03T05:40:04.335Z,11.60
2022-10-03T05:45:31.692Z,11.60
2022-10-03T05:51:13.109Z,11.60
2022-10-03T05:56:42.481Z,11.60
2022-10-03T06:02:20.342Z,11.60
2022-10-03T06:07:54.881Z,11.60
2022-10-03T06:13:38.282Z,11.50
2022-10-03T06:18:52.303Z,11.60
2022-10-03T06:24:28.319Z,11.60
2022-10-03T06:29:54.794Z,11.60
2022-10-03T06:35:30.263Z,11.70
2022-10-03T06:40:50.395Z,11.70
2022-10-03T06:46:30.390Z,11.70
2022-10-03T06:51:51.575Z,11.90
2022-10-03T06:57:11.208Z,11.90
2022-10-03T07:02:30.837Z,11.90
2022-10-03T07:08:02.434Z,11.90
2022-10-03T07:13:42.355Z,12.00
2022-10-03T07:18:58.031Z,12.10
2022-10-03T07:24:40.461Z,12.10
2022-10-03T07:29:54.069Z,12.30
2022-10-03T07:35:53.457Z,12.40
2022-10-03T07:41:19.289Z,12.40
2022-10-03T07:46:27.299Z,12.50
2022-10-03T07:51:51.148Z,12.70
2022-10-03T07:57:03.882Z,12.60
2022-10-03T08:02:40.275Z,12.60
2022-10-03T08:08:10.135Z,12.80
2022-10-03T08:13:49.415Z,12.80
2022-10-03T08:19:25.354Z,12.80
2022-10-03T08:25:07.270Z,12.90
2022-10-03T08:30:19.955Z,13.00
2022-10-03T08:36:02.224Z,13.20
2022-10-03T08:41:16.414Z,13.10
2022-10-03T08:46:36.635Z,13.20
2022-10-03T08:52:21.344Z,13.40
2022-10-03T08:57:26.039Z,13.30
2022-10-03T09:03:20.449Z,13.40
2022-10-03T09:08:33.828Z,13.40
2022-10-03T09:13:55.344Z,13.70
2022-10-03T09:19:35.495Z,13.60
2022-10-03T09:25:16.365Z,13.90
2022-10-03T09:30:29.670Z,14.00
2022-10-03T09:35:48.634Z,14.00
2022-10-03T09:41:21.766Z,13.90
2022-10-03T09:47:10.305Z,14.20
2022-10-03T09:52:46.867Z,14.40
2022-10-03T09:58:07.666Z,14.30
2022-10-03T10:03:27.518Z,14.50
2022-10-03T10:08:48.551Z,14.80
2022-10-03T10:14:18.121Z,14.50
2022-10-03T10:19:42.974Z,14.40
2022-10-03T10:25:03.139Z,14.50
2022-10-03T10:30:14.018Z,14.70
2022-10-03T10:35:40.016Z,15.00
2022-10-03T10:41:03.667Z,15.00
2022-10-03T10:46:33.462Z,15.00
2022-10-03T10:51:57.967Z,15.00
2022-10-03T10:57:39.134Z,14.90
2022-10-03T11:03:05.605Z,15.10
2022-10-03T11:08:28.494Z,15.40
2022-10-03T11:13:58.021Z,15.60
2022-10-03T11:19:28.940Z,15.30
2022-10-03T11:24:33.662Z,15.60
2022-10-03T11:30:10.924Z,15.60
2022-10-03T11:35:30.758Z,15.60
2022-10-03T11:41:12.169Z,15.60
2022-10-03T11:46:33.688Z,15.40
2022-10-03T11:52:18.917Z,15.00
2022-10-03T11:57:27.561Z,15.10
2022-10-03T12:02:41.977Z,15.40
2022-10-03T12:08:04.916Z,15.20
2022-10-03T12:13:17.429Z,15.20
2022-10-03T12:18:45.534Z,15.30
2022-10-03T12:24:18.358Z,15.10
2022-10-03T12:29:22.662Z,15.10
2022-10-03T12:34:30.288Z,15.10
2022-10-03T12:40:04.556Z,15.30
2022-10-03T12:45:15.333Z,15.80
2022-10-03T12:50:55.172Z,16.20
2022-10-03T12:56:04.410Z,16.30
2022-10-03T13:01:29.432Z,16.30
2022-10-03T13:07:04.556Z,16.20
2022-10-03T13:12:36.506Z,16.70
2022-10-03T13:17:49.469Z,17.30
2022-10-03T13:23:20.174Z,17.50
2022-10-03T13:28:35.661Z,17.60
2022-10-03T13:33:48.156Z,17.80
2022-10-03T13:39:09.957Z,17.50
2022-10-03T13:44:23.793Z,17.20
2022-10-03T13:49:52.946Z,17.10
2022-10-03T13:55:19.839Z,16.80
2022-10-03T14:00:24.987Z,16.70
2022-10-03T14:05:55.163Z,16.80
2022-10-03T14:11:11.448Z,16.50
2022-10-03T14:16:26.304Z,16.50
2022-10-03T14:21:40.852Z,17.00
2022-10-03T14:27:13.206Z,17.40
2022-10-03T14:32:53.598Z,17.50
2022-10-03T14:38:03.634Z,17.10
2022-10-03T14:43:34.865Z,16.70
2022-10-03T14:48:50.127Z,16.20
2022-10-03T14:54:02.529Z,16.30
2022-10-03T14:59:13.244Z,16.50
2022-10-03T15:04:30.489Z,16.30
2022-10-03T15:09:38.287Z,16.40
2022-10-03T15:14:49.122Z,16.20
2022-10-03T15:19:57.191Z,16.10
2022-10-03T15:25:25.824Z,16.00
2022-10-03T15:30:39.402Z,15.90
2022-10-03T15:35:46.149Z,15.90
2022-10-03T15:41:05.540Z,15.90
2022-10-03T15:46:27.792Z,15.70
2022-10-03T15:51:32.771Z,15.80
2022-10-03T15:56:43.705Z,15.60
2022-10-03T16:01:50.671Z,15.60
2022-10-03T16:06:57.173Z,15.50
2022-10-03T16:12:11.251Z,15.50
2022-10-03T16:17:22.652Z,15.50
2022-10-03T16:22:38.382Z,15.40
2022-10-03T16:27:44.922Z,15.40
2022-10-03T16:33:20.338Z,15.30
2022-10-03T16:38:29.728Z,15.30
2022-10-03T16:43:32.815Z,15.20
2022-10-03T16:48:54.153Z,15.10
2022-10-03T16:53:56.670Z,15.10
2022-10-03T16:59:08.045Z,15.00
2022-10-03T17:04:39.466Z,15.00
2022-10-03T17:09:50.986Z,15.00
2022-10-03T17:15:02.450Z,14.80
2022-10-03T17:20:11.711Z,14.70
2022-10-03T17:25:25.381Z,14.70
2022-10-03T17:30:42.708Z,14.60
2022-10-03T17:35:47.506Z,14.50
2022-10-03T17:41:11.426Z,14.40
2022-10-03T17:46:19.530Z,14.20
2022-10-03T17:51:31.399Z,14.20
2022-10-03T17:56:34.899Z,14.10
2022-10-03T18:01:44.160Z,14.10
2022-10-03T18:06:56.799Z,14.10
2022-10-03T18:12:16.993Z,14.00
2022-10-03T18:17:37.835Z,14.10
2022-10-03T18:22:48.186Z,14.00
2022-10-03T18:28:07.747Z,14.10
2022-10-03T18:33:19.040Z,14.10
2022-10-03T18:38:27.226Z,14.00
2022-10-03T18:43:31.341Z,14.00
2022-10-03T18:49:15.676Z,13.90
2022-10-03T18:54:40.238Z,13.80
2022-10-03T19:00:18.688Z,13.70
2022-10-03T19:05:22.058Z,13.60
2022-10-03T19:10:34.007Z,13.60
2022-10-03T19:16:03.985Z,13.60
2022-10-03T19:21:13.250Z,13.60
2022-10-03T19:26:31.326Z,13.60
2022-10-03T19:31:53.206Z,13.60
2022-10-03T19:36:57.375Z,13.60
2022-10-03T19:42:27.329Z,13.60
2022-10-03T19:47:38.114Z,13.40
2022-10-03T19:52:41.744Z,13.30
2022-10-03T19:57:56.095Z,13.40
2022-10-03T20:03:16.596Z,13.40
2022-10-03T20:08:34.300Z,13.40
2022-10-03T20:13:42.951Z,13.40
2022-10-03T20:18:48.458Z,13.30
2022-10-03T20:23:52.867Z,13.40
2022-10-03T20:29:43.284Z,13.40
2022-10-03T20:34:52.023Z,13.40
2022-10-03T20:40:02.628Z,13.40
2022-10-03T20:45:22.967Z,13.30
2022-10-03T20:50:33.703Z,13.40
2022-10-03T20:55:46.225Z,13.40
2022-10-03T21:00:52.212Z,13.40
2022-10-03T21:05:56.059Z,13.40
2022-10-03T21:11:01.100Z,13.30
2022-10-03T21:16:15.304Z,13.30
2022-10-03T21:21:26.523Z,13.30
2022-10-03T21:26:42.958Z,13.30
2022-10-03T21:32:06.257Z,13.30
2022-10-03T21:37:21.437Z,13.30
2022-10-03T21:42:27.384Z,13.30
2022-10-03T21:47:34.156Z,13.30
2022-10-03T21:52:44.881Z,13.30
2022-10-03T21:57:57.820Z,13.30
2022-10-03T22:03:25.374Z,13.30
2022-10-03T22:08:32.287Z,13.30
2022-10-03T22:13:37.043Z,13.30
2022-10-03T22:19:18.153Z,13.30
2022-10-03T22:24:44.119Z,13.40
2022-10-03T22:29:55.415Z,13.30
2022-10-03T22:35:19.910Z,13.30
2022-10-03T22:40:23.053Z,13.30
2022-10-03T22:45:27.944Z,13.30
2022-10-03T22:50:33.294Z,13.40
2022-10-03T22:55:36.573Z,13.30
2022-10-03T23:00:40.633Z,13.30
2022-10-03T23:06:09.978Z,13.30
2022-10-03T23:11:25.106Z,13.20
2022-10-03T23:16:35.778Z,13.20
2022-10-03T23:21:45.575Z,13.30
2022-10-03T23:26:54.353Z,13.30
2022-10-03T23:32:06.012Z,13.20
2022-10-03T23:37:13.840Z,13.20
2022-10-03T23:42:27.653Z,13.20
2022-10-03T23:47:54.149Z,13.10
2022-10-03T23:52:58.478Z,13.30
2022-10-03T23:58:00.877Z,13.20
